Acuna, Argentina
Current Conditions -  °F | °C
As of 9:00 PM on Tuesday 21 Oct 2014 (Local Time) from SARL Reporting Station
Clear Clear  
Wind Chill: 70°   Ceiling: Unl
Heat Index: 70°   Visibility: 6mi
Dew Point: 61°   Wind: 9mph
Humidity: 73%   Direction: 90°E
Pressure: 30.09"   Gusts: NA
Location:  29.92°S, 57.97°W
Report Text: SARL 220000Z 09008KT CAVOK 21/16 Q1019
Loading
Personal Weather Stations






























Interactive Weather Map
Tropical Storm Tracking
New forecast layout! Learn more

10-Day Weather Forecast

Advertisements
Track Severe Weather on mobile